createdAt,value
2022-09-28T00:01:19.556Z,97292.23
2022-09-28T00:04:25.587Z,97296.59
2022-09-28T00:07:32.088Z,97291.20
2022-09-28T00:10:38.274Z,97290.70
2022-09-28T00:13:43.022Z,97285.33
2022-09-28T00:16:49.804Z,97283.30
2022-09-28T00:19:58.094Z,97288.94
2022-09-28T00:23:04.186Z,97290.78
2022-09-28T00:26:10.260Z,97294.54
2022-09-28T00:29:19.946Z,97293.11
2022-09-28T00:32:41.889Z,97287.09
2022-09-28T00:35:56.478Z,97293.68
2022-09-28T00:39:08.109Z,97288.80
2022-09-28T00:42:24.226Z,97280.01
2022-09-28T00:45:31.885Z,97279.98
2022-09-28T00:48:51.362Z,97282.80
2022-09-28T00:51:59.353Z,97280.14
2022-09-28T00:55:19.052Z,97275.86
2022-09-28T00:58:33.733Z,97276.15
2022-09-28T01:01:46.852Z,97277.38
2022-09-28T01:04:58.484Z,97279.16
2022-09-28T01:08:07.739Z,97275.66
2022-09-28T01:11:13.863Z,97273.86
2022-09-28T01:14:19.257Z,97269.50
2022-09-28T01:17:32.306Z,97275.23
2022-09-28T01:20:55.926Z,97276.80
2022-09-28T01:24:23.209Z,97282.52
2022-09-28T01:27:34.257Z,97287.82
2022-09-28T01:30:47.318Z,97284.11
2022-09-28T01:33:57.988Z,97281.69
2022-09-28T01:37:11.165Z,97282.90
2022-09-28T01:40:18.728Z,97277.41
2022-09-28T01:43:28.231Z,97274.56
2022-09-28T01:46:39.410Z,97275.98
2022-09-28T01:49:50.258Z,97275.34
2022-09-28T01:53:00.638Z,97276.45
2022-09-28T01:56:12.551Z,97278.52
2022-09-28T01:59:21.540Z,97281.67
2022-09-28T02:02:33.608Z,97285.32
2022-09-28T02:05:43.475Z,97287.28
2022-09-28T02:08:55.148Z,97291.74
2022-09-28T02:12:07.247Z,97295.86
2022-09-28T02:15:19.497Z,97299.11
2022-09-28T02:18:26.093Z,97305.06
2022-09-28T02:21:39.578Z,97307.31
2022-09-28T02:24:55.289Z,97304.59
2022-09-28T02:28:03.270Z,97305.02
2022-09-28T02:31:09.560Z,97301.61
2022-09-28T02:34:15.621Z,97309.10
2022-09-28T02:37:21.908Z,97308.89
2022-09-28T02:40:30.034Z,97308.44
2022-09-28T02:43:50.742Z,97307.65
2022-09-28T02:47:05.986Z,97316.56
2022-09-28T02:50:20.569Z,97321.98
2022-09-28T02:53:46.559Z,97324.22
2022-09-28T02:57:03.635Z,97327.42
2022-09-28T03:00:16.102Z,97325.81
2022-09-28T03:03:30.644Z,97317.32
2022-09-28T03:06:42.715Z,97316.86
2022-09-28T03:09:56.934Z,97318.38
2022-09-28T03:13:05.078Z,97318.73
2022-09-28T03:16:16.890Z,97321.69
2022-09-28T03:19:28.233Z,97323.77
2022-09-28T03:22:34.286Z,97324.17
2022-09-28T03:25:40.867Z,97322.20
2022-09-28T03:28:46.910Z,97320.17
2022-09-28T03:31:55.091Z,97315.15
2022-09-28T03:35:01.290Z,97313.89
2022-09-28T03:38:07.390Z,97318.34
2022-09-28T03:41:13.583Z,97317.30
2022-09-28T03:44:18.058Z,97318.69
2022-09-28T03:47:24.142Z,97313.70
2022-09-28T03:50:30.280Z,97317.71
2022-09-28T03:53:36.752Z,97318.73
2022-09-28T03:56:42.977Z,97321.34
2022-09-28T03:59:47.438Z,97325.15
2022-09-28T04:02:54.157Z,97326.81
2022-09-28T04:06:00.468Z,97334.52
2022-09-28T04:09:04.920Z,97337.36
2022-09-28T04:12:11.110Z,97339.59
2022-09-28T04:15:15.585Z,97336.77
2022-09-28T04:18:22.136Z,97332.16
2022-09-28T04:21:28.634Z,97336.01
2022-09-28T04:24:34.722Z,97340.41
2022-09-28T04:28:12.976Z,97336.04
2022-09-28T04:31:21.739Z,97333.76
2022-09-28T04:34:33.140Z,97331.09
2022-09-28T04:37:41.584Z,97330.56
2022-09-28T04:40:49.968Z,97330.20
2022-09-28T04:43:56.286Z,97333.21
2022-09-28T04:47:05.182Z,97337.17
2022-09-28T04:50:12.413Z,97341.48
2022-09-28T04:53:18.559Z,97350.86
2022-09-28T04:56:24.630Z,97356.36
2022-09-28T04:59:30.835Z,97356.52
2022-09-28T05:02:37.023Z,97365.52
2022-09-28T05:05:49.074Z,97370.71
2022-09-28T05:08:57.638Z,97367.38
2022-09-28T05:12:04.461Z,97369.67
2022-09-28T05:15:11.866Z,97362.49
2022-09-28T05:18:18.022Z,97371.16
2022-09-28T05:21:24.881Z,97377.51
2022-09-28T05:24:31.189Z,97377.72
2022-09-28T05:27:35.683Z,97375.70
2022-09-28T05:30:41.839Z,97369.16
2022-09-28T05:33:47.989Z,97368.62
2022-09-28T05:36:54.093Z,97369.15
2022-09-28T05:40:00.219Z,97370.48
2022-09-28T05:43:06.385Z,97366.38
2022-09-28T05:46:12.685Z,97365.14
2022-09-28T05:49:17.451Z,97366.67
2022-09-28T05:52:23.862Z,97369.23
2022-09-28T05:55:30.219Z,97370.90
2022-09-28T05:58:36.436Z,97370.10
2022-09-28T06:01:42.609Z,97377.18
2022-09-28T06:04:49.572Z,97378.48
2022-09-28T06:07:56.339Z,97374.02
2022-09-28T06:11:04.045Z,97375.36
2022-09-28T06:14:10.540Z,97374.14
2022-09-28T06:17:16.747Z,97372.24
2022-09-28T06:20:23.043Z,97367.27
2022-09-28T06:23:27.596Z,97367.50
2022-09-28T06:26:33.920Z,97365.90
2022-09-28T06:29:39.953Z,97367.77
2022-09-28T06:32:46.380Z,97365.97
2022-09-28T06:35:52.510Z,97368.61
2022-09-28T06:38:58.621Z,97368.75
2022-09-28T06:42:05.196Z,97370.53
2022-09-28T06:45:12.746Z,97371.44
2022-09-28T06:48:18.898Z,97366.50
2022-09-28T06:51:25.229Z,97368.21
2022-09-28T06:54:29.774Z,97367.19
2022-09-28T06:57:35.829Z,97356.27
2022-09-28T07:00:42.753Z,97353.97
2022-09-28T07:03:52.488Z,97347.31
2022-09-28T07:07:01.139Z,97356.25
2022-09-28T07:10:10.355Z,97361.55
2022-09-28T07:13:44.555Z,97362.58
2022-09-28T07:17:09.680Z,97365.95
2022-09-28T07:20:18.672Z,97362.88
2022-09-28T07:23:26.570Z,97363.72
2022-09-28T07:26:33.899Z,97373.44
2022-09-28T07:29:40.015Z,97380.13
2022-09-28T07:32:48.516Z,97379.67
2022-09-28T07:35:56.452Z,97376.66
2022-09-28T07:39:02.656Z,97377.13
2022-09-28T07:42:07.582Z,97381.54
2022-09-28T07:45:13.935Z,97378.38
2022-09-28T07:48:20.514Z,97376.86
2022-09-28T07:51:26.608Z,97375.45
2022-09-28T07:54:32.760Z,97379.60
2022-09-28T07:57:40.013Z,97383.41
2022-09-28T08:00:48.573Z,97390.30
2022-09-28T08:03:56.452Z,97392.85
2022-09-28T08:07:03.225Z,97391.02
2022-09-28T08:10:10.673Z,97395.70
2022-09-28T08:13:18.743Z,97392.08
2022-09-28T08:16:25.560Z,97393.13
2022-09-28T08:19:52.447Z,97390.84
2022-09-28T08:23:03.767Z,97386.45
2022-09-28T08:26:15.190Z,97380.38
2022-09-28T08:29:21.663Z,97372.27
2022-09-28T08:32:26.402Z,97373.45
2022-09-28T08:35:32.582Z,97380.20
2022-09-28T08:38:37.060Z,97379.34
2022-09-28T08:41:50.933Z,97379.96
2022-09-28T08:45:00.331Z,97371.81
2022-09-28T08:48:30.781Z,97369.67
2022-09-28T08:51:41.851Z,97377.44
2022-09-28T08:54:53.227Z,97371.08
2022-09-28T08:58:04.295Z,97369.37
2022-09-28T09:01:16.706Z,97360.81
2022-09-28T09:04:22.998Z,97350.91
2022-09-28T09:07:41.259Z,97348.94
2022-09-28T09:10:53.551Z,97348.39
2022-09-28T09:14:35.146Z,97345.94
2022-09-28T09:17:51.185Z,97348.64
2022-09-28T09:21:02.425Z,97351.52
2022-09-28T09:24:24.941Z,97348.08
2022-09-28T09:27:43.701Z,97343.34
2022-09-28T09:31:00.898Z,97344.67
2022-09-28T09:34:41.059Z,97350.00
2022-09-28T09:38:00.734Z,97349.23
2022-09-28T09:41:17.848Z,97348.38
2022-09-28T09:44:46.469Z,97349.41
2022-09-28T09:47:57.699Z,97359.83
2022-09-28T09:51:14.436Z,97358.64
2022-09-28T09:54:28.469Z,97361.04
2022-09-28T09:57:41.994Z,97362.11
2022-09-28T10:00:51.694Z,97358.64
2022-09-28T10:04:00.178Z,97361.18
2022-09-28T10:07:10.746Z,97357.09
2022-09-28T10:10:21.703Z,97347.55
2022-09-28T10:13:29.337Z,97352.00
2022-09-28T10:16:37.243Z,97344.09
2022-09-28T10:19:43.988Z,97337.59
2022-09-28T10:22:51.318Z,97329.82
2022-09-28T10:26:01.866Z,97331.83
2022-09-28T10:29:14.893Z,97334.83
2022-09-28T10:32:26.513Z,97337.15
2022-09-28T10:35:42.289Z,97334.80
2022-09-28T10:38:50.774Z,97337.42
2022-09-28T10:41:58.794Z,97334.42
2022-09-28T10:45:20.981Z,97328.15
2022-09-28T10:48:28.408Z,97323.00
2022-09-28T10:51:49.758Z,97323.45
2022-09-28T10:54:57.103Z,97322.41
2022-09-28T10:58:18.913Z,97318.69
2022-09-28T11:01:28.617Z,97316.11
2022-09-28T11:04:41.438Z,97313.88
2022-09-28T11:07:52.016Z,97312.48
2022-09-28T11:11:10.754Z,97310.99
2022-09-28T11:14:27.438Z,97305.07
2022-09-28T11:17:38.792Z,97294.06
2022-09-28T11:20:45.606Z,97291.34
2022-09-28T11:24:06.022Z,97287.61
2022-09-28T11:27:23.724Z,97284.02
2022-09-28T11:30:32.976Z,97280.05
2022-09-28T11:33:41.463Z,97276.69
2022-09-28T11:37:08.366Z,97279.49
2022-09-28T11:40:29.131Z,97278.83
2022-09-28T11:43:49.429Z,97271.91
2022-09-28T11:47:05.503Z,97267.59
2022-09-28T11:50:24.448Z,97264.29
2022-09-28T11:53:38.260Z,97256.24
2022-09-28T11:56:48.995Z,97247.25
2022-09-28T12:00:03.070Z,97242.38
2022-09-28T12:03:15.491Z,97229.30
2022-09-28T12:06:28.764Z,97230.30
2022-09-28T12:09:39.735Z,97234.63
2022-09-28T12:12:51.154Z,97232.11
2022-09-28T12:16:27.577Z,97236.64
2022-09-28T12:19:33.482Z,97234.55
2022-09-28T12:22:44.497Z,97224.63
2022-09-28T12:25:54.958Z,97220.33
2022-09-28T12:29:06.650Z,97213.53
2022-09-28T12:32:24.962Z,97211.47
2022-09-28T12:35:42.263Z,97215.21
2022-09-28T12:39:18.012Z,97213.98
2022-09-28T12:42:53.220Z,97215.98
2022-09-28T12:46:14.323Z,97207.47
2022-09-28T12:50:37.162Z,97211.01
2022-09-28T12:53:41.681Z,97209.77
2022-09-28T12:57:00.976Z,97206.22
2022-09-28T13:00:11.853Z,97206.61
2022-09-28T13:03:36.362Z,97199.67
2022-09-28T13:06:55.062Z,97193.20
2022-09-28T13:10:14.570Z,97186.52
2022-09-28T13:13:38.305Z,97182.17
2022-09-28T13:16:56.167Z,97179.57
2022-09-28T13:20:18.951Z,97182.32
2022-09-28T13:23:28.940Z,97178.84
2022-09-28T13:26:39.594Z,97178.66
2022-09-28T13:29:46.351Z,97173.46
2022-09-28T13:32:54.363Z,97179.08
2022-09-28T13:36:03.438Z,97173.96
2022-09-28T13:39:56.701Z,97174.56
2022-09-28T13:43:23.271Z,97175.62
2022-09-28T13:46:41.085Z,97174.30
2022-09-28T13:49:58.010Z,97177.84
2022-09-28T13:53:16.707Z,97166.39
2022-09-28T13:56:36.122Z,97159.75
2022-09-28T13:59:51.257Z,97160.92
2022-09-28T14:03:05.069Z,97167.79
2022-09-28T14:06:25.579Z,97179.09
2022-09-28T14:09:45.776Z,97176.17
2022-09-28T14:12:52.634Z,97179.08
2022-09-28T14:16:26.910Z,97182.84
2022-09-28T14:19:35.302Z,97186.55
2022-09-28T14:22:53.965Z,97191.20
2022-09-28T14:26:18.408Z,97195.34
2022-09-28T14:29:30.144Z,97198.21
2022-09-28T14:32:37.738Z,97197.63
2022-09-28T14:35:48.313Z,97195.98
2022-09-28T14:39:13.227Z,97198.08
2022-09-28T14:42:23.194Z,97201.03
2022-09-28T14:45:44.603Z,97201.42
2022-09-28T14:48:52.775Z,97192.70
2022-09-28T14:52:04.938Z,97199.09
2022-09-28T14:55:30.613Z,97192.81
2022-09-28T14:58:39.639Z,97186.08
2022-09-28T15:01:51.846Z,97173.00
2022-09-28T15:05:02.039Z,97168.15
2022-09-28T15:08:08.343Z,97157.86
2022-09-28T15:11:20.291Z,97162.91
2022-09-28T15:14:28.102Z,97158.27
2022-09-28T15:17:39.954Z,97154.39
2022-09-28T15:20:49.834Z,97154.01
2022-09-28T15:23:55.941Z,97158.84
2022-09-28T15:27:03.142Z,97150.91
2022-09-28T15:30:24.203Z,97144.44
2022-09-28T15:33:49.121Z,97149.73
2022-09-28T15:36:56.450Z,97151.60
2022-09-28T15:40:04.242Z,97158.95
2022-09-28T15:43:24.940Z,97155.79
2022-09-28T15:46:31.834Z,97153.66
2022-09-28T15:49:43.137Z,97152.79
2022-09-28T15:52:57.551Z,97155.55
2022-09-28T15:56:10.327Z,97159.30
2022-09-28T15:59:26.718Z,97160.98
2022-09-28T16:02:33.077Z,97161.48
2022-09-28T16:05:47.253Z,97161.23
2022-09-28T16:08:53.852Z,97168.12
2022-09-28T16:12:00.264Z,97173.48
2022-09-28T16:15:20.474Z,97182.41
2022-09-28T16:18:27.972Z,97174.45
2022-09-28T16:21:44.817Z,97183.19
2022-09-28T16:24:58.266Z,97183.73
2022-09-28T16:28:05.414Z,97187.02
2022-09-28T16:31:28.472Z,97176.02
2022-09-28T16:34:34.590Z,97166.98
2022-09-28T16:37:42.799Z,97174.64
2022-09-28T16:40:50.689Z,97176.00
2022-09-28T16:44:00.953Z,97185.67
2022-09-28T16:47:07.701Z,97189.45
2022-09-28T16:50:17.460Z,97193.73
2022-09-28T16:53:41.239Z,97193.73
2022-09-28T16:56:47.470Z,97193.13
2022-09-28T16:59:53.365Z,97192.00
2022-09-28T17:02:59.593Z,97189.01
2022-09-28T17:06:07.719Z,97191.29
2022-09-28T17:09:15.207Z,97184.19
2022-09-28T17:12:24.990Z,97191.44
2022-09-28T17:15:31.179Z,97190.83
2022-09-28T17:18:39.204Z,97197.90
2022-09-28T17:21:45.377Z,97196.61
2022-09-28T17:24:50.192Z,97192.96
2022-09-28T17:27:58.398Z,97191.10
2022-09-28T17:31:05.801Z,97185.66
2022-09-28T17:34:12.857Z,97181.13
2022-09-28T17:37:18.978Z,97182.42
2022-09-28T17:40:24.168Z,97179.27
2022-09-28T17:43:30.344Z,97178.21
2022-09-28T17:46:35.872Z,97179.68
2022-09-28T17:49:45.841Z,97185.36
2022-09-28T17:52:53.454Z,97188.74
2022-09-28T17:55:59.563Z,97193.02
2022-09-28T17:59:05.082Z,97194.46
2022-09-28T18:02:12.755Z,97198.82
2022-09-28T18:05:19.885Z,97205.71
2022-09-28T18:08:26.176Z,97209.60
2022-09-28T18:11:32.834Z,97214.66
2022-09-28T18:14:40.191Z,97221.53
2022-09-28T18:17:46.347Z,97220.14
2022-09-28T18:20:50.790Z,97225.39
2022-09-28T18:23:56.543Z,97223.61
2022-09-28T18:27:02.500Z,97226.45
2022-09-28T18:30:10.342Z,97229.17
2022-09-28T18:33:16.610Z,97235.05
2022-09-28T18:36:22.365Z,97239.36
2022-09-28T18:39:28.518Z,97236.29
2022-09-28T18:42:35.771Z,97233.86
2022-09-28T18:45:42.227Z,97241.07
2022-09-28T18:48:48.582Z,97240.16
2022-09-28T18:51:54.432Z,97233.74
2022-09-28T18:55:00.288Z,97230.91
2022-09-28T18:58:06.035Z,97233.73
2022-09-28T19:01:32.262Z,97240.73
2022-09-28T19:04:38.898Z,97250.02
2022-09-28T19:07:45.263Z,97253.07
2022-09-28T19:10:51.523Z,97255.61
2022-09-28T19:13:58.498Z,97256.61
2022-09-28T19:17:04.749Z,97253.44
2022-09-28T19:20:11.798Z,97258.01
2022-09-28T19:23:18.018Z,97259.09
2022-09-28T19:26:26.209Z,97263.58
2022-09-28T19:29:32.550Z,97266.48
2022-09-28T19:32:39.101Z,97265.25
2022-09-28T19:35:45.367Z,97270.64
2022-09-28T19:38:52.859Z,97270.89
2022-09-28T19:41:59.955Z,97273.70
2022-09-28T19:45:07.638Z,97272.36
2022-09-28T19:48:13.887Z,97274.03
2022-09-28T19:51:20.245Z,97278.14
2022-09-28T19:54:32.051Z,97284.49
2022-09-28T19:57:40.602Z,97287.86
2022-09-28T20:00:46.859Z,97280.56
2022-09-28T20:03:53.184Z,97275.05
2022-09-28T20:06:59.458Z,97280.65
2022-09-28T20:10:06.280Z,97287.38
2022-09-28T20:13:12.617Z,97294.09
2022-09-28T20:16:24.525Z,97299.16
2022-09-28T20:19:31.020Z,97299.41
2022-09-28T20:22:37.361Z,97296.54
2022-09-28T20:25:43.605Z,97295.61
2022-09-28T20:28:50.040Z,97289.64
2022-09-28T20:31:56.786Z,97295.26
2022-09-28T20:35:03.050Z,97298.30
2022-09-28T20:38:09.317Z,97299.30
2022-09-28T20:41:17.750Z,97297.73
2022-09-28T20:44:24.073Z,97308.80
2022-09-28T20:47:30.392Z,97320.83
2022-09-28T20:50:37.128Z,97324.52
2022-09-28T20:53:44.888Z,97325.73
2022-09-28T20:56:51.159Z,97326.27
2022-09-28T20:59:57.818Z,97329.78
2022-09-28T21:03:04.101Z,97333.98
2022-09-28T21:06:12.428Z,97328.41
2022-09-28T21:09:19.104Z,97331.81
2022-09-28T21:12:26.182Z,97330.75
2022-09-28T21:15:32.520Z,97332.29
2022-09-28T21:18:38.778Z,97334.16
2022-09-28T21:21:44.966Z,97337.73
2022-09-28T21:24:49.529Z,97339.86
2022-09-28T21:27:56.674Z,97344.61
2022-09-28T21:31:03.824Z,97344.30
2022-09-28T21:34:13.317Z,97348.26
2022-09-28T21:37:19.561Z,97352.83
2022-09-28T21:40:24.647Z,97356.09
2022-09-28T21:43:32.482Z,97357.44
2022-09-28T21:46:39.797Z,97358.80
2022-09-28T21:49:46.259Z,97366.61
2022-09-28T21:52:53.437Z,97365.40
2022-09-28T21:56:00.741Z,97369.55
2022-09-28T21:59:06.971Z,97366.84
2022-09-28T22:02:13.639Z,97359.77
2022-09-28T22:05:21.080Z,97364.41
2022-09-28T22:08:27.563Z,97365.08
2022-09-28T22:11:34.160Z,97371.45
2022-09-28T22:14:40.463Z,97370.73
2022-09-28T22:17:46.780Z,97372.66
2022-09-28T22:21:01.531Z,97373.89
2022-09-28T22:24:09.039Z,97369.41
2022-09-28T22:27:15.815Z,97373.13
2022-09-28T22:30:22.037Z,97378.16
2022-09-28T22:33:28.910Z,97374.34
2022-09-28T22:36:35.844Z,97377.70
2022-09-28T22:39:42.126Z,97378.10
2022-09-28T22:42:48.352Z,97381.21
2022-09-28T22:46:04.756Z,97384.55
2022-09-28T22:49:13.202Z,97386.81
2022-09-28T22:52:19.413Z,97384.27
2022-09-28T22:55:24.066Z,97385.38
2022-09-28T22:58:30.757Z,97388.70
2022-09-28T23:01:37.431Z,97398.45
2022-09-28T23:04:43.637Z,97404.70
2022-09-28T23:07:48.466Z,97406.06
2022-09-28T23:10:55.382Z,97400.61
2022-09-28T23:14:02.766Z,97402.13
2022-09-28T23:17:09.003Z,97417.65
2022-09-28T23:20:15.356Z,97425.17
2022-09-28T23:23:21.587Z,97435.16
2022-09-28T23:26:30.454Z,97437.89
2022-09-28T23:29:36.726Z,97449.45
2022-09-28T23:32:43.188Z,97453.20
2022-09-28T23:35:49.521Z,97453.08
2022-09-28T23:38:56.257Z,97443.54
2022-09-28T23:42:02.830Z,97446.79
2022-09-28T23:45:10.831Z,97451.64
2022-09-28T23:48:17.170Z,97437.37
2022-09-28T23:51:23.490Z,97434.25
2022-09-28T23:54:29.786Z,97434.00
2022-09-28T23:57:36.199Z,97442.27
